createdAt,value
2022-08-11T00:03:21.124Z,24.67
2022-08-11T00:10:27.962Z,24.66
2022-08-11T00:17:31.321Z,24.59
2022-08-11T00:24:54.764Z,24.48
2022-08-11T00:31:58.478Z,24.36
2022-08-11T00:39:04.038Z,24.27
2022-08-11T00:46:10.655Z,24.20
2022-08-11T00:53:26.517Z,24.14
2022-08-11T01:00:33.224Z,24.04
2022-08-11T01:08:12.300Z,23.94
2022-08-11T01:15:40.208Z,23.84
2022-08-11T01:22:53.741Z,23.74
2022-08-11T01:30:29.022Z,23.64
2022-08-11T01:37:48.857Z,23.62
2022-08-11T01:45:37.212Z,23.58
2022-08-11T01:53:06.320Z,23.50
2022-08-11T02:00:11.780Z,23.37
2022-08-11T02:07:26.884Z,23.29
2022-08-11T02:15:08.520Z,23.19
2022-08-11T02:22:34.477Z,23.08
2022-08-11T02:29:47.477Z,22.98
2022-08-11T02:37:03.432Z,22.90
2022-08-11T02:44:07.757Z,22.80
2022-08-11T02:51:14.909Z,22.77
2022-08-11T02:58:28.219Z,22.69
2022-08-11T03:06:01.135Z,22.60
2022-08-11T03:13:34.641Z,22.48
2022-08-11T03:20:45.385Z,22.40
2022-08-11T03:28:02.698Z,22.35
2022-08-11T03:35:04.690Z,22.30
2022-08-11T03:42:38.463Z,22.30
2022-08-11T03:49:47.269Z,22.23
2022-08-11T03:57:12.235Z,22.18
2022-08-11T04:04:51.382Z,22.11
2022-08-11T04:12:14.848Z,22.08
2022-08-11T04:19:47.784Z,22.03
2022-08-11T04:27:17.383Z,22.04
2022-08-11T04:34:32.734Z,22.02
2022-08-11T04:42:11.666Z,21.99
2022-08-11T04:49:40.786Z,21.98
2022-08-11T04:57:02.097Z,22.00
2022-08-11T05:04:32.544Z,22.02
2022-08-11T05:11:52.104Z,22.10
2022-08-11T05:19:18.120Z,22.09
2022-08-11T05:26:46.941Z,22.15
2022-08-11T05:34:15.179Z,22.24
2022-08-11T05:41:35.378Z,22.32
2022-08-11T05:48:55.661Z,22.41
2022-08-11T05:56:16.425Z,22.57
2022-08-11T06:03:25.438Z,22.74
2022-08-11T06:10:38.304Z,22.92
2022-08-11T06:17:47.017Z,22.87
2022-08-11T06:24:53.998Z,22.93
2022-08-11T06:32:02.192Z,23.05
2022-08-11T06:39:09.979Z,23.24
2022-08-11T06:46:11.753Z,23.31
2022-08-11T06:53:27.048Z,23.32
2022-08-11T07:00:28.666Z,23.49
2022-08-11T07:08:34.367Z,23.79
2022-08-11T07:16:11.463Z,24.01
2022-08-11T07:23:23.016Z,24.29
2022-08-11T07:30:24.689Z,24.45
2022-08-11T07:37:26.444Z,24.74
2022-08-11T07:44:34.984Z,25.12
2022-08-11T07:51:55.734Z,25.98
2022-08-11T07:59:15.903Z,26.91
2022-08-11T08:06:37.200Z,27.36
2022-08-11T08:13:57.363Z,27.92
2022-08-11T08:21:12.112Z,28.40
2022-08-11T08:28:16.232Z,29.37
2022-08-11T08:35:17.831Z,29.62
2022-08-11T08:42:27.330Z,29.81
2022-08-11T08:49:33.887Z,30.17
2022-08-11T08:56:35.507Z,31.28
2022-08-11T09:04:04.831Z,32.08
2022-08-11T09:11:17.997Z,32.12
2022-08-11T09:18:19.648Z,32.53
2022-08-11T09:25:40.751Z,33.12
2022-08-11T09:32:42.740Z,33.64
2022-08-11T09:40:02.941Z,34.38
2022-08-11T09:47:05.310Z,34.54
2022-08-11T09:54:06.967Z,34.46
2022-08-11T10:01:26.995Z,34.79
2022-08-11T10:08:29.015Z,34.82
2022-08-11T10:15:34.133Z,35.11
2022-08-11T10:22:54.267Z,35.54
2022-08-11T10:30:14.439Z,35.89
2022-08-11T10:37:16.463Z,35.17
2022-08-11T10:44:18.042Z,35.14
2022-08-11T10:51:50.210Z,35.48
2022-08-11T10:58:50.482Z,35.49
2022-08-11T11:06:28.092Z,36.06
2022-08-11T11:13:33.252Z,36.25
2022-08-11T11:20:47.182Z,36.49
2022-08-11T11:28:22.952Z,36.77
2022-08-11T11:35:36.675Z,37.34
2022-08-11T11:42:42.392Z,37.12
2022-08-11T11:49:44.334Z,37.31
2022-08-11T11:56:46.131Z,37.90
2022-08-11T12:03:49.691Z,37.86
2022-08-11T12:11:16.150Z,38.11
2022-08-11T12:18:17.765Z,37.40
2022-08-11T12:25:37.938Z,37.71
2022-08-11T12:32:40.768Z,37.90
2022-08-11T12:40:16.145Z,38.30
2022-08-11T12:48:48.585Z,38.05
2022-08-11T12:55:12.669Z,38.91
2022-08-11T13:02:43.914Z,39.18
2022-08-11T13:09:46.473Z,39.11
2022-08-11T13:17:42.366Z,39.54
2022-08-11T13:24:45.214Z,39.43
2022-08-11T13:31:47.034Z,39.19
2022-08-11T13:38:50.150Z,39.39
2022-08-11T13:45:52.894Z,39.72
2022-08-11T13:52:54.511Z,39.86
2022-08-11T14:00:09.544Z,39.86
2022-08-11T14:07:15.185Z,39.68
2022-08-11T14:14:21.214Z,39.78
2022-08-11T14:21:42.382Z,39.65
2022-08-11T14:28:45.325Z,39.64
2022-08-11T14:35:48.757Z,39.42
2022-08-11T14:43:18.158Z,38.61
2022-08-11T14:50:24.351Z,38.92
2022-08-11T14:57:56.153Z,39.06
2022-08-11T15:04:53.359Z,38.76
2022-08-11T15:12:09.963Z,38.59
2022-08-11T15:19:41.097Z,38.24
2022-08-11T15:27:01.193Z,38.38
2022-08-11T15:34:22.478Z,38.41
2022-08-11T15:41:58.518Z,38.54
2022-08-11T15:49:08.600Z,38.57
2022-08-11T15:56:11.035Z,38.21
2022-08-11T16:04:06.797Z,37.85
2022-08-11T16:10:53.164Z,37.84
2022-08-11T16:18:04.017Z,37.30
2022-08-11T16:27:02.912Z,37.00
2022-08-11T16:32:32.359Z,36.68
2022-08-11T16:39:34.133Z,36.39
2022-08-11T16:46:54.873Z,36.02
2022-08-11T16:54:03.865Z,35.63
2022-08-11T17:01:07.729Z,35.14
2022-08-11T17:08:28.045Z,34.83
2022-08-11T17:15:50.838Z,34.61
2022-08-11T17:23:13.302Z,34.25
2022-08-11T17:30:15.230Z,33.89
2022-08-11T17:37:16.861Z,33.62
2022-08-11T17:44:37.153Z,33.31
2022-08-11T17:51:57.878Z,33.04
2022-08-11T17:59:18.113Z,32.76
2022-08-11T18:06:19.760Z,32.50
2022-08-11T18:13:50.366Z,32.30
2022-08-11T18:21:10.611Z,32.08
2022-08-11T18:28:32.491Z,31.83
2022-08-11T18:35:53.147Z,31.61
2022-08-11T18:43:13.841Z,31.38
2022-08-11T18:50:38.400Z,31.18
2022-08-11T18:57:59.214Z,30.94
2022-08-11T19:05:20.265Z,30.78
2022-08-11T19:13:00.917Z,30.56
2022-08-11T19:20:22.710Z,30.37
2022-08-11T19:27:46.447Z,30.17
2022-08-11T19:35:07.051Z,30.01
2022-08-11T19:42:27.329Z,29.95
2022-08-11T19:49:47.686Z,29.72
2022-08-11T19:57:07.877Z,29.60
2022-08-11T20:04:28.078Z,29.42
2022-08-11T20:11:50.323Z,29.31
2022-08-11T20:19:10.534Z,29.22
2022-08-11T20:26:31.688Z,29.07
2022-08-11T20:33:51.966Z,28.90
2022-08-11T20:41:12.569Z,28.79
2022-08-11T20:48:36.691Z,28.67
2022-08-11T20:55:56.887Z,28.45
2022-08-11T21:03:35.885Z,28.20
2022-08-11T21:10:57.438Z,28.00
2022-08-11T21:18:28.302Z,27.88
2022-08-11T21:25:53.276Z,27.73
2022-08-11T21:33:13.341Z,27.58
2022-08-11T21:40:34.067Z,27.50
2022-08-11T21:48:00.840Z,27.35
2022-08-11T21:55:21.565Z,27.20
2022-08-11T22:02:41.699Z,27.08
2022-08-11T22:10:37.037Z,26.95
2022-08-11T22:17:42.101Z,26.81
2022-08-11T22:25:02.337Z,26.70
2022-08-11T22:32:36.505Z,26.56
2022-08-11T22:40:02.645Z,26.46
2022-08-11T22:47:23.661Z,26.36
2022-08-11T22:54:47.442Z,26.25
2022-08-11T23:02:07.872Z,26.15
2022-08-11T23:09:28.529Z,26.06
2022-08-11T23:16:49.103Z,25.90
2022-08-11T23:24:09.148Z,25.78
2022-08-11T23:31:29.451Z,25.66
2022-08-11T23:39:09.602Z,25.59
2022-08-11T23:46:29.893Z,25.51
2022-08-11T23:53:50.262Z,25.39
